Riverside, CA

11:28 AM PST on February 21, 2017 (GMT -0800)
Riverside Live Steamers / HUNTER PARK | | Change Station

Elev 980 ft 34.00 °N, 117.34 °W | Updated 35 seconds ago

Overcast
Overcast
68.0 °F
Feels Like 68.0 °F
N
3.7
Wind Variable Wind from NNW

Today
High -- | Low -- °F
--% Chance of Precip.
Yesterday
High -- | Low -- °F
Precip. -- in
Pressure 30.30 in
Visibility 8.0 miles
Clouds Mostly Cloudy 10000 ft
Dew Point 58 °F
Humidity 70%
Rainfall 0.30 in
Snow Depth Not available.
6:27 AM 5:39 PM
Waning Crescent, 23% visible
METAR KRAL 211853Z 00000KT 8SM BKN100 18/13 A3033 RMK AO2 SLP261 T01780133
Pressure 30.30 in
Visibility 8.0 miles
Clouds Mostly Cloudy 10000 ft
Dew Point 58 °F
Humidity 70%
Rainfall 0.30 in
Snow Depth Not available.
6:27 AM 5:39 PM
Waning Crescent, 23% visible
METAR KRAL 211853Z 00000KT 8SM BKN100 18/13 A3033 RMK AO2 SLP261 T01780133

Get Your Daily Forecast Email!

Thanks for signing up!

Be on the lookout for a verification email in your inbox.

You'll start receiving the daily forecast at 8 AM.

×

10-Day Weather Forecast

Almanac

Astronomy

Feb. 21, 2017 Rise Set
Actual Time
Civil Twilight
Nautical Twilight
Astronomical Twilight
Moon
Length of Visible Light
Length of Day
Tomorrow will be .
, % of the Moon is Illuminated

Today's Extremes

State Highs State Lows

Community

WunderPhotos

Upload Photos

1,962,540 photos uploaded!

WunderBlog® & News

Nearby

Air Quality

  Air Quality AQ Index Pollutant
Not available.

Snow Depth

Station Depth Elevation

Earthquake Activity

City Distance Mag. Time & Date
Minimum magnitude displayed is 2.5.

Coastal Water Temperatures

Place Temperature

Stations

Nearby Weather Stations

Station Location Temp. Windchill Dew Point Humidity Wind Precip. Elev Updated Type
                   

Watches & Warnings

There are currently no watches in effect.